createdAt,value
2023-03-03T00:05:50.020Z,4.00
2023-03-03T00:11:57.146Z,3.90
2023-03-03T00:18:00.053Z,4.00
2023-03-03T00:24:14.272Z,3.80
2023-03-03T00:30:27.846Z,3.70
2023-03-03T00:36:37.433Z,3.60
2023-03-03T00:42:39.781Z,3.50
2023-03-03T00:48:43.838Z,3.40
2023-03-03T00:54:46.439Z,3.40
2023-03-03T01:00:50.382Z,3.40
2023-03-03T01:06:55.279Z,3.40
2023-03-03T01:12:58.553Z,3.40
2023-03-03T01:19:00.970Z,3.50
2023-03-03T01:25:04.135Z,3.60
2023-03-03T01:31:07.472Z,3.70
2023-03-03T01:37:09.868Z,3.80
2023-03-03T01:43:16.287Z,3.80
2023-03-03T01:49:31.735Z,3.90
2023-03-03T01:55:40.232Z,4.00
2023-03-03T02:01:43.184Z,4.00
2023-03-03T02:07:46.055Z,4.10
2023-03-03T02:13:48.434Z,4.10
2023-03-03T02:20:01.000Z,4.10
2023-03-03T02:26:12.079Z,4.20
2023-03-03T02:32:15.040Z,4.20
2023-03-03T02:38:45.020Z,4.20
2023-03-03T02:44:47.709Z,4.20
2023-03-03T02:50:49.871Z,4.20
2023-03-03T02:56:52.443Z,4.30
2023-03-03T03:02:56.058Z,4.30
2023-03-03T03:08:59.147Z,4.30
2023-03-03T03:15:02.605Z,4.30
2023-03-03T03:21:09.974Z,4.30
2023-03-03T03:27:13.482Z,4.30
2023-03-03T03:33:16.090Z,4.30
2023-03-03T03:39:19.082Z,4.30
2023-03-03T03:45:23.853Z,4.30
2023-03-03T03:51:26.264Z,4.30
2023-03-03T03:57:28.832Z,4.30
2023-03-03T04:03:31.682Z,4.40
2023-03-03T04:09:34.316Z,4.40
2023-03-03T04:15:36.872Z,4.40
2023-03-03T04:21:39.875Z,4.40
2023-03-03T04:27:43.888Z,4.40
2023-03-03T04:33:48.091Z,4.50
2023-03-03T04:39:50.715Z,4.50
2023-03-03T04:45:53.257Z,4.50
2023-03-03T04:51:57.144Z,4.50
2023-03-03T04:57:59.607Z,4.50
2023-03-03T05:04:02.056Z,4.50
2023-03-03T05:10:04.651Z,4.60
2023-03-03T05:16:06.756Z,4.70
2023-03-03T05:22:09.156Z,4.70
2023-03-03T05:28:11.480Z,4.90
2023-03-03T05:34:13.593Z,5.00
2023-03-03T05:40:15.748Z,4.90
2023-03-03T05:46:17.920Z,4.90
2023-03-03T05:52:20.023Z,5.00
2023-03-03T05:58:22.734Z,5.00
2023-03-03T06:04:24.945Z,5.00
2023-03-03T06:10:27.392Z,5.10
2023-03-03T06:16:33.087Z,5.10
2023-03-03T06:22:35.542Z,5.30
2023-03-03T06:28:37.755Z,5.30
2023-03-03T06:34:40.108Z,5.30
2023-03-03T06:40:42.519Z,5.40
2023-03-03T06:46:44.746Z,5.50
2023-03-03T06:52:46.888Z,5.70
2023-03-03T06:58:49.941Z,5.90
2023-03-03T07:04:55.868Z,6.10
2023-03-03T07:11:07.057Z,6.00
2023-03-03T07:17:19.184Z,6.10
2023-03-03T07:23:28.084Z,6.20
2023-03-03T07:29:33.664Z,6.30
2023-03-03T07:35:44.807Z,6.50
2023-03-03T07:41:47.239Z,6.70
2023-03-03T07:47:49.345Z,7.20
2023-03-03T07:53:53.591Z,7.20
2023-03-03T08:00:09.387Z,7.50
2023-03-03T08:06:35.559Z,7.80
2023-03-03T08:12:42.779Z,7.90
2023-03-03T08:18:48.879Z,8.20
2023-03-03T08:24:52.077Z,8.20
2023-03-03T08:31:08.883Z,8.30
2023-03-03T08:37:15.327Z,8.50
2023-03-03T08:43:21.809Z,8.50
2023-03-03T08:49:25.301Z,8.60
2023-03-03T08:55:28.206Z,8.70
2023-03-03T09:01:32.866Z,8.90
2023-03-03T09:07:35.715Z,9.00
2023-03-03T09:13:37.687Z,9.00
2023-03-03T09:19:40.300Z,9.20
2023-03-03T09:25:42.737Z,9.60
2023-03-03T09:31:48.797Z,9.90
2023-03-03T09:37:52.243Z,10.00
2023-03-03T09:44:17.786Z,10.10
2023-03-03T09:50:50.627Z,10.30
2023-03-03T09:57:04.386Z,11.00
2023-03-03T10:03:15.658Z,11.40
2023-03-03T10:09:54.780Z,12.00
2023-03-03T10:16:23.100Z,13.10
2023-03-03T10:22:53.000Z,13.50
2023-03-03T10:28:58.749Z,14.10
2023-03-03T10:35:42.337Z,13.70
2023-03-03T10:42:26.064Z,13.30
2023-03-03T10:48:49.490Z,13.40
2023-03-03T10:55:01.000Z,13.30
2023-03-03T11:01:24.078Z,13.40
2023-03-03T11:07:35.873Z,13.50
2023-03-03T11:13:41.180Z,13.40
2023-03-03T11:20:09.964Z,13.30
2023-03-03T11:26:38.763Z,13.10
2023-03-03T11:32:54.484Z,13.00
2023-03-03T11:39:03.790Z,13.00
2023-03-03T11:45:34.556Z,13.00
2023-03-03T11:52:04.417Z,12.80
2023-03-03T11:58:22.911Z,12.00
2023-03-03T12:04:47.630Z,11.60
2023-03-03T12:11:02.748Z,11.30
2023-03-03T12:17:26.863Z,11.20
2023-03-03T12:23:35.278Z,11.10
2023-03-03T12:29:59.705Z,11.10
2023-03-03T12:36:39.407Z,11.20
2023-03-03T12:43:06.131Z,11.40
2023-03-03T12:49:08.433Z,11.80
2023-03-03T12:55:38.985Z,11.80
2023-03-03T13:01:56.849Z,11.80
2023-03-03T13:08:31.751Z,12.00
2023-03-03T13:14:51.665Z,11.80
2023-03-03T13:21:07.083Z,11.30
2023-03-03T13:27:15.192Z,11.20
2023-03-03T13:33:28.127Z,11.30
2023-03-03T13:39:36.277Z,11.20
2023-03-03T13:46:02.526Z,10.90
2023-03-03T13:52:09.293Z,10.70
2023-03-03T13:58:17.051Z,10.50
2023-03-03T14:04:48.751Z,10.40
2023-03-03T14:11:34.483Z,10.20
2023-03-03T14:17:47.975Z,10.10
2023-03-03T14:23:56.401Z,10.00
2023-03-03T14:29:58.721Z,10.00
2023-03-03T14:36:04.256Z,9.80
2023-03-03T14:42:52.537Z,9.60
2023-03-03T14:48:57.213Z,9.60
2023-03-03T14:55:05.419Z,9.40
2023-03-03T15:01:26.791Z,9.30
2023-03-03T15:07:33.404Z,9.10
2023-03-03T15:13:36.361Z,9.10
2023-03-03T15:19:49.907Z,9.00
2023-03-03T15:26:03.088Z,8.90
2023-03-03T15:32:25.887Z,8.80
2023-03-03T15:39:06.859Z,8.70
2023-03-03T15:45:30.252Z,8.60
2023-03-03T15:52:03.158Z,8.50
2023-03-03T15:58:12.372Z,8.40
2023-03-03T16:04:22.727Z,8.30
2023-03-03T16:10:36.998Z,8.10
2023-03-03T16:16:47.744Z,8.00
2023-03-03T16:22:54.831Z,7.90
2023-03-03T16:36:28.094Z,7.80
2023-03-03T16:54:54.800Z,7.70
2023-03-03T17:01:35.807Z,7.70
2023-03-03T17:07:38.001Z,7.60
2023-03-03T17:13:55.805Z,7.50
2023-03-03T17:20:03.946Z,7.50
2023-03-03T17:26:25.249Z,7.50
2023-03-03T17:32:58.391Z,7.40
2023-03-03T17:39:19.038Z,7.40
2023-03-03T17:45:24.560Z,7.30
2023-03-03T17:51:36.797Z,7.30
2023-03-03T17:57:51.664Z,7.40
2023-03-03T18:04:13.978Z,7.30
2023-03-03T18:10:34.820Z,7.30
2023-03-03T18:16:52.113Z,7.10
2023-03-03T18:22:55.155Z,7.10
2023-03-03T18:29:24.318Z,7.00
2023-03-03T18:35:42.189Z,6.80
2023-03-03T18:42:10.541Z,6.70
2023-03-03T18:48:14.314Z,6.60
2023-03-03T18:54:17.676Z,6.60
2023-03-03T19:00:28.124Z,6.50
2023-03-03T19:06:50.077Z,6.50
2023-03-03T19:12:59.632Z,6.50
2023-03-03T19:19:08.971Z,6.40
2023-03-03T19:25:28.634Z,6.40
2023-03-03T19:31:56.532Z,6.30
2023-03-03T19:38:20.605Z,6.30
2023-03-03T19:44:58.850Z,6.30
2023-03-03T19:51:20.095Z,6.20
2023-03-03T19:57:27.970Z,6.20
2023-03-03T20:03:39.387Z,6.20
2023-03-03T20:09:54.178Z,6.20
2023-03-03T20:16:02.341Z,6.20
2023-03-03T20:22:08.501Z,6.10
2023-03-03T20:28:33.022Z,6.10
2023-03-03T20:34:56.440Z,6.10
2023-03-03T20:41:23.618Z,6.10
2023-03-03T20:47:26.042Z,5.90
2023-03-03T20:53:58.981Z,5.90
2023-03-03T21:00:16.417Z,5.90
2023-03-03T21:06:21.156Z,5.90
2023-03-03T21:12:31.722Z,5.80
2023-03-03T21:18:34.264Z,5.70
2023-03-03T21:24:54.984Z,5.70
2023-03-03T21:31:08.047Z,5.60
2023-03-03T21:37:11.465Z,5.70
2023-03-03T21:43:42.915Z,5.70
2023-03-03T21:49:47.006Z,5.70
2023-03-03T21:55:49.989Z,5.70
2023-03-03T22:01:52.260Z,5.60
2023-03-03T22:07:54.528Z,5.70
2023-03-03T22:13:56.663Z,5.70
2023-03-03T22:19:59.153Z,5.70
2023-03-03T22:26:02.499Z,5.70
2023-03-03T22:32:04.807Z,5.80
2023-03-03T22:38:07.175Z,5.80
2023-03-03T22:44:09.336Z,5.80
2023-03-03T22:50:11.947Z,5.80
2023-03-03T22:56:14.065Z,5.90
2023-03-03T23:02:17.115Z,5.80
2023-03-03T23:08:20.774Z,5.80
2023-03-03T23:14:23.004Z,5.90
2023-03-03T23:20:27.829Z,5.80
2023-03-03T23:26:30.089Z,5.90
2023-03-03T23:32:32.534Z,5.90
2023-03-03T23:38:34.884Z,5.90
2023-03-03T23:44:38.161Z,5.90
2023-03-03T23:50:40.375Z,5.90
2023-03-03T23:56:42.662Z,5.90
